sensor_id;sensor_type;location;lat;lon;timestamp;P1;durP1;ratioP1;P2;durP2;ratioP2
18931;SDS011;9598;50.954;3.112;2023-03-13T00:02:45;12.15;;;4.72;;
18931;SDS011;9598;50.954;3.112;2023-03-13T00:07:49;10.27;;;4.70;;
18931;SDS011;9598;50.954;3.112;2023-03-13T00:12:51;11.32;;;4.43;;
18931;SDS011;9598;50.954;3.112;2023-03-13T00:17:55;9.63;;;4.03;;
18931;SDS011;9598;50.954;3.112;2023-03-13T00:22:57;10.65;;;3.78;;
18931;SDS011;9598;50.954;3.112;2023-03-13T00:27:59;8.98;;;3.03;;
18931;SDS011;9598;50.954;3.112;2023-03-13T00:33:03;8.90;;;3.90;;
18931;SDS011;9598;50.954;3.112;2023-03-13T00:38:05;10.85;;;3.65;;
18931;SDS011;9598;50.954;3.112;2023-03-13T00:43:07;7.60;;;3.30;;
18931;SDS011;9598;50.954;3.112;2023-03-13T00:48:10;7.55;;;3.40;;
18931;SDS011;9598;50.954;3.112;2023-03-13T00:53:13;5.93;;;3.38;;
18931;SDS011;9598;50.954;3.112;2023-03-13T00:58:15;7.70;;;3.47;;
18931;SDS011;9598;50.954;3.112;2023-03-13T01:03:18;7.40;;;3.55;;
18931;SDS011;9598;50.954;3.112;2023-03-13T01:08:21;6.97;;;2.92;;
18931;SDS011;9598;50.954;3.112;2023-03-13T01:13:23;3.55;;;2.95;;
18931;SDS011;9598;50.954;3.112;2023-03-13T01:18:27;4.97;;;2.45;;
18931;SDS011;9598;50.954;3.112;2023-03-13T01:23:29;3.03;;;2.08;;
18931;SDS011;9598;50.954;3.112;2023-03-13T01:28:32;4.07;;;2.35;;
18931;SDS011;9598;50.954;3.112;2023-03-13T01:33:36;2.28;;;1.98;;
18931;SDS011;9598;50.954;3.112;2023-03-13T01:38:38;3.83;;;2.30;;
18931;SDS011;9598;50.954;3.112;2023-03-13T01:43:42;3.97;;;2.80;;
18931;SDS011;9598;50.954;3.112;2023-03-13T01:48:48;2.40;;;2.20;;
18931;SDS011;9598;50.954;3.112;2023-03-13T01:53:55;3.85;;;2.88;;
18931;SDS011;9598;50.954;3.112;2023-03-13T01:59:02;5.22;;;2.83;;
18931;SDS011;9598;50.954;3.112;2023-03-13T02:04:08;5.20;;;3.33;;
18931;SDS011;9598;50.954;3.112;2023-03-13T02:09:11;5.53;;;3.72;;
18931;SDS011;9598;50.954;3.112;2023-03-13T02:14:17;4.30;;;3.65;;
18931;SDS011;9598;50.954;3.112;2023-03-13T02:19:26;5.20;;;3.72;;
18931;SDS011;9598;50.954;3.112;2023-03-13T02:24:31;5.80;;;3.95;;
18931;SDS011;9598;50.954;3.112;2023-03-13T02:29:43;5.25;;;4.32;;
18931;SDS011;9598;50.954;3.112;2023-03-13T02:34:46;5.82;;;4.28;;
18931;SDS011;9598;50.954;3.112;2023-03-13T02:39:53;5.03;;;4.53;;
18931;SDS011;9598;50.954;3.112;2023-03-13T02:44:58;6.55;;;4.47;;
18931;SDS011;9598;50.954;3.112;2023-03-13T02:50:00;6.40;;;4.38;;
18931;SDS011;9598;50.954;3.112;2023-03-13T02:55:05;6.28;;;3.95;;
18931;SDS011;9598;50.954;3.112;2023-03-13T03:00:12;5.07;;;3.83;;
18931;SDS011;9598;50.954;3.112;2023-03-13T03:05:17;5.28;;;4.03;;
18931;SDS011;9598;50.954;3.112;2023-03-13T03:10:21;6.65;;;4.22;;
18931;SDS011;9598;50.954;3.112;2023-03-13T03:15:26;4.95;;;3.40;;
18931;SDS011;9598;50.954;3.112;2023-03-13T03:20:28;5.47;;;3.53;;
18931;SDS011;9598;50.954;3.112;2023-03-13T03:25:30;5.78;;;3.70;;
18931;SDS011;9598;50.954;3.112;2023-03-13T03:30:34;5.05;;;3.30;;
18931;SDS011;9598;50.954;3.112;2023-03-13T03:35:36;7.22;;;4.03;;
18931;SDS011;9598;50.954;3.112;2023-03-13T03:40:40;6.68;;;3.38;;
18931;SDS011;9598;50.954;3.112;2023-03-13T03:45:44;6.63;;;3.20;;
18931;SDS011;9598;50.954;3.112;2023-03-13T03:50:47;3.72;;;3.25;;
18931;SDS011;9598;50.954;3.112;2023-03-13T03:55:50;5.50;;;3.17;;
18931;SDS011;9598;50.954;3.112;2023-03-13T04:00:55;6.72;;;3.58;;
18931;SDS011;9598;50.954;3.112;2023-03-13T04:05:58;5.60;;;3.88;;
18931;SDS011;9598;50.954;3.112;2023-03-13T04:11:02;6.18;;;3.15;;
18931;SDS011;9598;50.954;3.112;2023-03-13T04:16:11;6.28;;;3.47;;
18931;SDS011;9598;50.954;3.112;2023-03-13T04:21:14;7.70;;;4.07;;
18931;SDS011;9598;50.954;3.112;2023-03-13T04:26:21;6.28;;;3.85;;
18931;SDS011;9598;50.954;3.112;2023-03-13T04:31:27;6.13;;;3.25;;
18931;SDS011;9598;50.954;3.112;2023-03-13T04:36:43;8.95;;;3.92;;
18931;SDS011;9598;50.954;3.112;2023-03-13T04:42:05;6.85;;;3.47;;
18931;SDS011;9598;50.954;3.112;2023-03-13T04:47:34;7.88;;;4.03;;
18931;SDS011;9598;50.954;3.112;2023-03-13T04:53:08;6.70;;;3.55;;
18931;SDS011;9598;50.954;3.112;2023-03-13T04:58:20;7.28;;;3.35;;
18931;SDS011;9598;50.954;3.112;2023-03-13T05:03:48;8.45;;;3.58;;
18931;SDS011;9598;50.954;3.112;2023-03-13T05:09:13;11.02;;;4.55;;
18931;SDS011;9598;50.954;3.112;2023-03-13T05:14:53;9.90;;;4.15;;
18931;SDS011;9598;50.954;3.112;2023-03-13T05:19:59;8.55;;;3.75;;
18931;SDS011;9598;50.954;3.112;2023-03-13T05:25:19;11.18;;;3.92;;
18931;SDS011;9598;50.954;3.112;2023-03-13T05:30:37;7.28;;;3.63;;
18931;SDS011;9598;50.954;3.112;2023-03-13T05:35:47;5.00;;;3.17;;
18931;SDS011;9598;50.954;3.112;2023-03-13T05:41:08;12.23;;;3.80;;
18931;SDS011;9598;50.954;3.112;2023-03-13T05:46:29;10.23;;;3.90;;
18931;SDS011;9598;50.954;3.112;2023-03-13T05:52:11;8.38;;;3.70;;
18931;SDS011;9598;50.954;3.112;2023-03-13T05:57:36;9.95;;;3.70;;
18931;SDS011;9598;50.954;3.112;2023-03-13T06:02:58;8.85;;;3.85;;
18931;SDS011;9598;50.954;3.112;2023-03-13T06:08:09;7.15;;;2.95;;
18931;SDS011;9598;50.954;3.112;2023-03-13T06:13:11;8.82;;;3.45;;
18931;SDS011;9598;50.954;3.112;2023-03-13T06:18:13;7.45;;;3.40;;
18931;SDS011;9598;50.954;3.112;2023-03-13T06:23:17;6.13;;;3.03;;
18931;SDS011;9598;50.954;3.112;2023-03-13T06:28:19;8.20;;;2.75;;
18931;SDS011;9598;50.954;3.112;2023-03-13T06:33:21;6.47;;;2.63;;
18931;SDS011;9598;50.954;3.112;2023-03-13T06:38:25;6.45;;;2.75;;
18931;SDS011;9598;50.954;3.112;2023-03-13T06:43:27;5.90;;;2.38;;
18931;SDS011;9598;50.954;3.112;2023-03-13T06:48:29;7.70;;;2.85;;
18931;SDS011;9598;50.954;3.112;2023-03-13T06:53:33;6.20;;;2.42;;
18931;SDS011;9598;50.954;3.112;2023-03-13T06:58:35;6.15;;;2.50;;
18931;SDS011;9598;50.954;3.112;2023-03-13T07:03:37;5.50;;;2.30;;
18931;SDS011;9598;50.954;3.112;2023-03-13T07:08:42;3.70;;;1.85;;
18931;SDS011;9598;50.954;3.112;2023-03-13T07:13:45;5.05;;;2.30;;
18931;SDS011;9598;50.954;3.112;2023-03-13T07:18:49;2.75;;;1.60;;
18931;SDS011;9598;50.954;3.112;2023-03-13T07:23:53;4.63;;;1.95;;
18931;SDS011;9598;50.954;3.112;2023-03-13T07:28:55;2.60;;;1.50;;
18931;SDS011;9598;50.954;3.112;2023-03-13T07:34:03;4.93;;;1.70;;
18931;SDS011;9598;50.954;3.112;2023-03-13T07:39:07;5.45;;;2.22;;
18931;SDS011;9598;50.954;3.112;2023-03-13T07:44:09;3.88;;;2.22;;
18931;SDS011;9598;50.954;3.112;2023-03-13T07:49:11;3.35;;;1.55;;
18931;SDS011;9598;50.954;3.112;2023-03-13T07:54:14;6.50;;;2.00;;
18931;SDS011;9598;50.954;3.112;2023-03-13T07:59:18;4.70;;;1.75;;
18931;SDS011;9598;50.954;3.112;2023-03-13T08:04:20;2.20;;;1.45;;
18931;SDS011;9598;50.954;3.112;2023-03-13T08:09:23;5.85;;;2.20;;
18931;SDS011;9598;50.954;3.112;2023-03-13T08:14:26;4.55;;;2.28;;
18931;SDS011;9598;50.954;3.112;2023-03-13T08:19:28;3.28;;;2.20;;
18931;SDS011;9598;50.954;3.112;2023-03-13T08:24:32;4.95;;;2.35;;
18931;SDS011;9598;50.954;3.112;2023-03-13T08:29:34;4.82;;;2.85;;
18931;SDS011;9598;50.954;3.112;2023-03-13T08:34:37;4.03;;;2.10;;
18931;SDS011;9598;50.954;3.112;2023-03-13T08:39:40;2.80;;;2.00;;
18931;SDS011;9598;50.954;3.112;2023-03-13T08:44:45;2.92;;;2.00;;
18931;SDS011;9598;50.954;3.112;2023-03-13T08:49:47;3.78;;;2.08;;
18931;SDS011;9598;50.954;3.112;2023-03-13T08:54:51;4.38;;;1.70;;
18931;SDS011;9598;50.954;3.112;2023-03-13T08:59:53;3.28;;;1.70;;
18931;SDS011;9598;50.954;3.112;2023-03-13T09:04:55;2.45;;;1.73;;
18931;SDS011;9598;50.954;3.112;2023-03-13T09:09:58;4.25;;;1.85;;
18931;SDS011;9598;50.954;3.112;2023-03-13T09:15:01;3.05;;;1.75;;
18931;SDS011;9598;50.954;3.112;2023-03-13T09:20:04;5.20;;;1.88;;
18931;SDS011;9598;50.954;3.112;2023-03-13T09:25:09;5.20;;;1.40;;
18931;SDS011;9598;50.954;3.112;2023-03-13T09:30:12;2.47;;;1.48;;
18931;SDS011;9598;50.954;3.112;2023-03-13T09:35:14;3.35;;;1.40;;
18931;SDS011;9598;50.954;3.112;2023-03-13T09:40:18;3.60;;;1.52;;
18931;SDS011;9598;50.954;3.112;2023-03-13T09:45:24;2.50;;;1.38;;
18931;SDS011;9598;50.954;3.112;2023-03-13T09:50:33;2.15;;;1.50;;
18931;SDS011;9598;50.954;3.112;2023-03-13T09:55:42;3.22;;;1.38;;
18931;SDS011;9598;50.954;3.112;2023-03-13T10:00:47;3.72;;;1.65;;
18931;SDS011;9598;50.954;3.112;2023-03-13T10:05:52;3.38;;;1.50;;
18931;SDS011;9598;50.954;3.112;2023-03-13T10:10:58;5.20;;;1.98;;
18931;SDS011;9598;50.954;3.112;2023-03-13T10:16:07;4.78;;;1.83;;
18931;SDS011;9598;50.954;3.112;2023-03-13T10:21:13;4.13;;;1.90;;
18931;SDS011;9598;50.954;3.112;2023-03-13T10:26:20;6.20;;;2.70;;
18931;SDS011;9598;50.954;3.112;2023-03-13T10:31:25;7.82;;;2.60;;
18931;SDS011;9598;50.954;3.112;2023-03-13T10:36:38;7.05;;;2.78;;
18931;SDS011;9598;50.954;3.112;2023-03-13T10:41:42;10.70;;;2.95;;
18931;SDS011;9598;50.954;3.112;2023-03-13T10:46:45;7.13;;;2.17;;
18931;SDS011;9598;50.954;3.112;2023-03-13T10:51:49;7.07;;;2.50;;
18931;SDS011;9598;50.954;3.112;2023-03-13T10:57:08;6.20;;;2.33;;
18931;SDS011;9598;50.954;3.112;2023-03-13T11:02:22;7.47;;;2.42;;
18931;SDS011;9598;50.954;3.112;2023-03-13T11:07:28;3.58;;;1.17;;
18931;SDS011;9598;50.954;3.112;2023-03-13T11:12:34;5.45;;;1.95;;
18931;SDS011;9598;50.954;3.112;2023-03-13T11:17:44;9.75;;;3.58;;
18931;SDS011;9598;50.954;3.112;2023-03-13T11:22:55;6.15;;;3.05;;
18931;SDS011;9598;50.954;3.112;2023-03-13T11:28:10;11.75;;;3.20;;
18931;SDS011;9598;50.954;3.112;2023-03-13T11:33:27;11.63;;;4.05;;
18931;SDS011;9598;50.954;3.112;2023-03-13T11:38:32;11.60;;;3.67;;
18931;SDS011;9598;50.954;3.112;2023-03-13T11:49:22;11.18;;;3.20;;
18931;SDS011;9598;50.954;3.112;2023-03-13T11:55:00;12.95;;;4.07;;
18931;SDS011;9598;50.954;3.112;2023-03-13T12:00:20;13.02;;;4.05;;
18931;SDS011;9598;50.954;3.112;2023-03-13T12:05:29;10.45;;;3.58;;
18931;SDS011;9598;50.954;3.112;2023-03-13T12:10:43;10.88;;;3.78;;
18931;SDS011;9598;50.954;3.112;2023-03-13T12:15:49;10.00;;;3.60;;
18931;SDS011;9598;50.954;3.112;2023-03-13T12:20:55;15.13;;;4.10;;
18931;SDS011;9598;50.954;3.112;2023-03-13T12:26:02;14.43;;;4.40;;
18931;SDS011;9598;50.954;3.112;2023-03-13T12:31:10;11.65;;;3.70;;
18931;SDS011;9598;50.954;3.112;2023-03-13T12:36:19;17.48;;;4.22;;
18931;SDS011;9598;50.954;3.112;2023-03-13T12:41:26;10.63;;;3.80;;
18931;SDS011;9598;50.954;3.112;2023-03-13T12:46:36;10.82;;;4.32;;
18931;SDS011;9598;50.954;3.112;2023-03-13T12:51:46;12.95;;;4.22;;
18931;SDS011;9598;50.954;3.112;2023-03-13T13:02:26;16.27;;;4.00;;
18931;SDS011;9598;50.954;3.112;2023-03-13T13:07:30;17.33;;;5.00;;
18931;SDS011;9598;50.954;3.112;2023-03-13T13:12:34;15.25;;;4.45;;
18931;SDS011;9598;50.954;3.112;2023-03-13T13:17:50;11.45;;;3.78;;
18931;SDS011;9598;50.954;3.112;2023-03-13T13:23:23;12.63;;;3.55;;
18931;SDS011;9598;50.954;3.112;2023-03-13T13:28:36;12.95;;;4.55;;
18931;SDS011;9598;50.954;3.112;2023-03-13T13:33:40;11.10;;;4.15;;
18931;SDS011;9598;50.954;3.112;2023-03-13T13:38:42;18.10;;;4.78;;
18931;SDS011;9598;50.954;3.112;2023-03-13T13:43:45;10.70;;;4.18;;
18931;SDS011;9598;50.954;3.112;2023-03-13T13:59:41;17.13;;;4.60;;
18931;SDS011;9598;50.954;3.112;2023-03-13T14:04:47;14.88;;;4.70;;
18931;SDS011;9598;50.954;3.112;2023-03-13T14:09:57;12.48;;;4.45;;
18931;SDS011;9598;50.954;3.112;2023-03-13T14:15:08;17.42;;;5.32;;
18931;SDS011;9598;50.954;3.112;2023-03-13T14:20:17;20.10;;;5.03;;
18931;SDS011;9598;50.954;3.112;2023-03-13T14:25:22;13.20;;;4.45;;
18931;SDS011;9598;50.954;3.112;2023-03-13T14:30:25;15.80;;;4.78;;
18931;SDS011;9598;50.954;3.112;2023-03-13T14:35:28;15.80;;;4.45;;
18931;SDS011;9598;50.954;3.112;2023-03-13T14:40:32;16.35;;;4.93;;
18931;SDS011;9598;50.954;3.112;2023-03-13T14:45:37;16.40;;;4.97;;
18931;SDS011;9598;50.954;3.112;2023-03-13T14:50:41;15.68;;;4.85;;
18931;SDS011;9598;50.954;3.112;2023-03-13T14:55:43;14.60;;;4.43;;
18931;SDS011;9598;50.954;3.112;2023-03-13T15:00:46;17.80;;;4.85;;
18931;SDS011;9598;50.954;3.112;2023-03-13T15:06:01;13.80;;;4.47;;
18931;SDS011;9598;50.954;3.112;2023-03-13T15:11:15;11.40;;;4.43;;
18931;SDS011;9598;50.954;3.112;2023-03-13T15:16:25;16.15;;;5.03;;
18931;SDS011;9598;50.954;3.112;2023-03-13T15:21:29;13.88;;;4.88;;
18931;SDS011;9598;50.954;3.112;2023-03-13T15:26:34;14.65;;;4.63;;
18931;SDS011;9598;50.954;3.112;2023-03-13T15:31:36;19.08;;;5.75;;
18931;SDS011;9598;50.954;3.112;2023-03-13T15:36:40;14.15;;;4.30;;
18931;SDS011;9598;50.954;3.112;2023-03-13T15:41:42;14.60;;;4.57;;
18931;SDS011;9598;50.954;3.112;2023-03-13T15:46:44;14.27;;;3.97;;
18931;SDS011;9598;50.954;3.112;2023-03-13T15:51:48;18.00;;;4.25;;
18931;SDS011;9598;50.954;3.112;2023-03-13T15:56:50;19.08;;;4.72;;
18931;SDS011;9598;50.954;3.112;2023-03-13T16:01:53;18.23;;;5.00;;
18931;SDS011;9598;50.954;3.112;2023-03-13T16:06:56;18.13;;;4.72;;
18931;SDS011;9598;50.954;3.112;2023-03-13T16:11:59;17.30;;;5.47;;
18931;SDS011;9598;50.954;3.112;2023-03-13T16:17:03;12.35;;;4.13;;
18931;SDS011;9598;50.954;3.112;2023-03-13T16:22:14;11.90;;;4.13;;
18931;SDS011;9598;50.954;3.112;2023-03-13T16:27:17;17.35;;;4.20;;
18931;SDS011;9598;50.954;3.112;2023-03-13T16:32:20;16.35;;;5.05;;
18931;SDS011;9598;50.954;3.112;2023-03-13T16:37:25;15.57;;;4.75;;
18931;SDS011;9598;50.954;3.112;2023-03-13T16:42:27;16.60;;;5.43;;
18931;SDS011;9598;50.954;3.112;2023-03-13T16:47:29;16.70;;;5.03;;
18931;SDS011;9598;50.954;3.112;2023-03-13T16:52:33;11.90;;;4.60;;
18931;SDS011;9598;50.954;3.112;2023-03-13T16:57:35;15.63;;;5.30;;
18931;SDS011;9598;50.954;3.112;2023-03-13T17:02:37;14.45;;;5.00;;
18931;SDS011;9598;50.954;3.112;2023-03-13T17:07:41;18.70;;;5.07;;
18931;SDS011;9598;50.954;3.112;2023-03-13T17:12:44;16.38;;;5.32;;
18931;SDS011;9598;50.954;3.112;2023-03-13T17:17:47;14.50;;;4.45;;
18931;SDS011;9598;50.954;3.112;2023-03-13T17:22:53;16.58;;;5.30;;
18931;SDS011;9598;50.954;3.112;2023-03-13T17:27:55;18.55;;;5.80;;
18931;SDS011;9598;50.954;3.112;2023-03-13T17:32:57;17.15;;;5.03;;
18931;SDS011;9598;50.954;3.112;2023-03-13T17:38:01;13.00;;;4.65;;
18931;SDS011;9598;50.954;3.112;2023-03-13T17:43:03;15.27;;;4.82;;
18931;SDS011;9598;50.954;3.112;2023-03-13T17:48:07;17.63;;;4.50;;
18931;SDS011;9598;50.954;3.112;2023-03-13T17:53:14;17.10;;;5.13;;
18931;SDS011;9598;50.954;3.112;2023-03-13T17:58:17;18.40;;;4.20;;
18931;SDS011;9598;50.954;3.112;2023-03-13T18:03:19;20.42;;;6.03;;
18931;SDS011;9598;50.954;3.112;2023-03-13T18:08:24;17.13;;;5.18;;
18931;SDS011;9598;50.954;3.112;2023-03-13T18:13:26;14.60;;;4.90;;
18931;SDS011;9598;50.954;3.112;2023-03-13T18:18:29;16.08;;;5.10;;
18931;SDS011;9598;50.954;3.112;2023-03-13T18:23:32;18.42;;;4.68;;
18931;SDS011;9598;50.954;3.112;2023-03-13T18:28:35;18.90;;;5.50;;
18931;SDS011;9598;50.954;3.112;2023-03-13T18:33:37;17.63;;;5.78;;
18931;SDS011;9598;50.954;3.112;2023-03-13T18:38:40;19.58;;;5.38;;
18931;SDS011;9598;50.954;3.112;2023-03-13T18:43:43;20.45;;;6.15;;
18931;SDS011;9598;50.954;3.112;2023-03-13T18:48:45;15.13;;;5.07;;
18931;SDS011;9598;50.954;3.112;2023-03-13T18:53:49;15.65;;;5.22;;
18931;SDS011;9598;50.954;3.112;2023-03-13T18:58:52;15.57;;;5.30;;
18931;SDS011;9598;50.954;3.112;2023-03-13T19:03:55;18.65;;;4.90;;
18931;SDS011;9598;50.954;3.112;2023-03-13T19:09:00;19.20;;;5.75;;
18931;SDS011;9598;50.954;3.112;2023-03-13T19:14:04;18.48;;;5.63;;
18931;SDS011;9598;50.954;3.112;2023-03-13T19:19:09;18.73;;;6.60;;
18931;SDS011;9598;50.954;3.112;2023-03-13T19:24:14;15.52;;;6.60;;
18931;SDS011;9598;50.954;3.112;2023-03-13T19:29:17;15.90;;;5.22;;
18931;SDS011;9598;50.954;3.112;2023-03-13T19:34:20;16.85;;;5.40;;
18931;SDS011;9598;50.954;3.112;2023-03-13T19:39:24;17.05;;;6.10;;
18931;SDS011;9598;50.954;3.112;2023-03-13T19:44:26;16.25;;;6.28;;
18931;SDS011;9598;50.954;3.112;2023-03-13T19:49:28;17.65;;;6.22;;
18931;SDS011;9598;50.954;3.112;2023-03-13T19:54:32;21.02;;;6.75;;
18931;SDS011;9598;50.954;3.112;2023-03-13T19:59:34;15.20;;;6.07;;
18931;SDS011;9598;50.954;3.112;2023-03-13T20:04:39;15.77;;;5.50;;
18931;SDS011;9598;50.954;3.112;2023-03-13T20:09:46;17.27;;;6.10;;
18931;SDS011;9598;50.954;3.112;2023-03-13T20:14:48;22.50;;;7.10;;
18931;SDS011;9598;50.954;3.112;2023-03-13T20:19:50;20.30;;;6.82;;
18931;SDS011;9598;50.954;3.112;2023-03-13T20:24:54;24.63;;;6.88;;
18931;SDS011;9598;50.954;3.112;2023-03-13T20:29:56;19.45;;;6.63;;
18931;SDS011;9598;50.954;3.112;2023-03-13T20:34:58;17.65;;;6.53;;
18931;SDS011;9598;50.954;3.112;2023-03-13T20:40:01;16.92;;;5.28;;
18931;SDS011;9598;50.954;3.112;2023-03-13T20:45:06;15.35;;;6.28;;
18931;SDS011;9598;50.954;3.112;2023-03-13T20:50:09;14.00;;;5.65;;
18931;SDS011;9598;50.954;3.112;2023-03-13T20:55:13;16.02;;;5.25;;
18931;SDS011;9598;50.954;3.112;2023-03-13T21:00:16;14.27;;;4.78;;
18931;SDS011;9598;50.954;3.112;2023-03-13T21:05:18;12.40;;;3.80;;
18931;SDS011;9598;50.954;3.112;2023-03-13T21:10:22;15.60;;;3.85;;
18931;SDS011;9598;50.954;3.112;2023-03-13T21:15:24;9.93;;;2.65;;
18931;SDS011;9598;50.954;3.112;2023-03-13T21:20:26;4.00;;;1.55;;
18931;SDS011;9598;50.954;3.112;2023-03-13T21:25:30;6.03;;;1.55;;
18931;SDS011;9598;50.954;3.112;2023-03-13T21:30:32;4.75;;;1.77;;
18931;SDS011;9598;50.954;3.112;2023-03-13T21:35:35;5.03;;;1.58;;
18931;SDS011;9598;50.954;3.112;2023-03-13T21:40:39;7.78;;;2.08;;
18931;SDS011;9598;50.954;3.112;2023-03-13T21:45:41;5.32;;;1.70;;
18931;SDS011;9598;50.954;3.112;2023-03-13T21:50:43;5.45;;;1.48;;
18931;SDS011;9598;50.954;3.112;2023-03-13T21:55:49;4.20;;;1.92;;
18931;SDS011;9598;50.954;3.112;2023-03-13T22:00:52;4.43;;;1.77;;
18931;SDS011;9598;50.954;3.112;2023-03-13T22:05:55;6.00;;;1.90;;
18931;SDS011;9598;50.954;3.112;2023-03-13T22:10:58;6.40;;;1.65;;
18931;SDS011;9598;50.954;3.112;2023-03-13T22:16:00;5.55;;;2.40;;
18931;SDS011;9598;50.954;3.112;2023-03-13T22:21:03;7.28;;;1.67;;
18931;SDS011;9598;50.954;3.112;2023-03-13T22:26:06;7.57;;;2.58;;
18931;SDS011;9598;50.954;3.112;2023-03-13T22:31:10;4.97;;;1.67;;
18931;SDS011;9598;50.954;3.112;2023-03-13T22:36:12;5.35;;;1.88;;
18931;SDS011;9598;50.954;3.112;2023-03-13T22:41:16;6.32;;;1.50;;
18931;SDS011;9598;50.954;3.112;2023-03-13T22:46:18;6.18;;;2.05;;
18931;SDS011;9598;50.954;3.112;2023-03-13T22:51:20;4.47;;;1.48;;
18931;SDS011;9598;50.954;3.112;2023-03-13T22:56:24;7.22;;;1.90;;
18931;SDS011;9598;50.954;3.112;2023-03-13T23:01:26;6.20;;;2.03;;
18931;SDS011;9598;50.954;3.112;2023-03-13T23:06:28;4.65;;;1.63;;
18931;SDS011;9598;50.954;3.112;2023-03-13T23:11:32;3.97;;;1.63;;
18931;SDS011;9598;50.954;3.112;2023-03-13T23:16:36;4.35;;;1.70;;
18931;SDS011;9598;50.954;3.112;2023-03-13T23:21:38;7.80;;;1.48;;
18931;SDS011;9598;50.954;3.112;2023-03-13T23:26:41;7.53;;;1.80;;
18931;SDS011;9598;50.954;3.112;2023-03-13T23:31:44;3.75;;;1.90;;
18931;SDS011;9598;50.954;3.112;2023-03-13T23:36:46;6.60;;;1.80;;
18931;SDS011;9598;50.954;3.112;2023-03-13T23:41:49;4.97;;;2.00;;
18931;SDS011;9598;50.954;3.112;2023-03-13T23:46:51;5.03;;;1.77;;
18931;SDS011;9598;50.954;3.112;2023-03-13T23:51:56;5.60;;;2.10;;
18931;SDS011;9598;50.954;3.112;2023-03-13T23:56:59;7.60;;;2.17;;
